Tienen, Belgium
Current Conditions -  °F | °C
As of 8:25 AM on Tuesday 27 Jan 2015 (Local Time) from EBBE Reporting Station
Broken Clouds Broken Clouds  
Wind Chill: 31°   Ceiling: 21000
Heat Index: 36°   Visibility: 5mi
Dew Point: 34°   Wind: 6mph
Humidity: 93%   Direction: 250°WSW
Pressure: 30.27"   Gusts: NA
Location:  50.81°N, 4.94°E
Report Text: EBBE 270725Z 25005KT 8000 FEW014 BKN210 02/01 Q1025 BLU BLU TEMPO WHT
Loading
Personal Weather Stations






























Interactive Weather Map New forecast layout! Learn more

10-Day Weather Forecast

Advertisements
Track Severe Weather on mobile